createdAt,value
2023-05-11T00:00:27.277Z,17.34
2023-05-11T00:02:55.113Z,17.34
2023-05-11T00:05:23.420Z,17.35
2023-05-11T00:07:51.191Z,17.36
2023-05-11T00:10:19.308Z,17.35
2023-05-11T00:12:47.693Z,17.37
2023-05-11T00:15:16.900Z,17.38
2023-05-11T00:17:45.373Z,17.38
2023-05-11T00:20:13.850Z,17.38
2023-05-11T00:22:44.118Z,17.39
2023-05-11T00:25:12.788Z,17.39
2023-05-11T00:27:46.348Z,17.40
2023-05-11T00:30:16.663Z,17.39
2023-05-11T00:32:45.349Z,17.40
2023-05-11T00:35:13.962Z,17.40
2023-05-11T00:37:41.805Z,17.39
2023-05-11T00:40:10.348Z,17.31
2023-05-11T00:42:38.641Z,17.40
2023-05-11T00:45:07.841Z,17.38
2023-05-11T00:47:37.536Z,17.39
2023-05-11T00:50:06.507Z,17.38
2023-05-11T00:52:34.269Z,17.37
2023-05-11T00:55:02.329Z,17.36
2023-05-11T00:57:32.152Z,17.35
2023-05-11T01:00:02.557Z,17.34
2023-05-11T01:02:31.031Z,17.33
2023-05-11T01:05:01.900Z,17.33
2023-05-11T01:07:38.157Z,17.29
2023-05-11T01:10:16.405Z,17.30
2023-05-11T01:12:54.255Z,17.26
2023-05-11T01:15:29.791Z,17.19
2023-05-11T01:18:04.223Z,17.19
2023-05-11T01:20:33.883Z,17.15
2023-05-11T01:23:22.837Z,17.14
2023-05-11T01:26:05.810Z,17.14
2023-05-11T01:28:53.948Z,17.07
2023-05-11T01:31:24.538Z,17.03
2023-05-11T01:33:56.456Z,16.98
2023-05-11T01:36:30.019Z,16.95
2023-05-11T01:39:01.966Z,16.90
2023-05-11T01:41:33.642Z,16.85
2023-05-11T01:44:06.502Z,16.83
2023-05-11T01:46:36.833Z,16.79
2023-05-11T01:49:08.177Z,16.77
2023-05-11T01:51:39.094Z,16.73
2023-05-11T01:54:09.523Z,16.72
2023-05-11T01:56:39.943Z,16.69
2023-05-11T01:59:08.308Z,16.69
2023-05-11T02:01:38.193Z,16.70
2023-05-11T02:04:07.279Z,16.70
2023-05-11T02:06:37.936Z,16.72
2023-05-11T02:09:09.004Z,16.70
2023-05-11T02:11:38.942Z,16.73
2023-05-11T02:14:08.306Z,16.71
2023-05-11T02:16:39.696Z,16.73
2023-05-11T02:19:08.724Z,16.70
2023-05-11T02:21:38.230Z,16.69
2023-05-11T02:24:08.417Z,16.69
2023-05-11T02:26:36.339Z,16.65
2023-05-11T02:29:04.386Z,16.64
2023-05-11T02:31:37.453Z,16.64
2023-05-11T02:34:14.885Z,16.64
2023-05-11T02:36:44.998Z,16.63
2023-05-11T02:39:15.464Z,16.61
2023-05-11T02:41:46.476Z,16.57
2023-05-11T02:44:18.620Z,16.61
2023-05-11T02:46:50.409Z,16.60
2023-05-11T02:49:23.562Z,16.59
2023-05-11T02:51:54.659Z,16.56
2023-05-11T02:54:25.047Z,16.59
2023-05-11T02:56:52.941Z,16.57
2023-05-11T02:59:21.882Z,16.57
2023-05-11T03:01:50.204Z,16.57
2023-05-11T03:04:19.526Z,16.57
2023-05-11T03:06:48.437Z,16.57
2023-05-11T03:09:16.232Z,16.56
2023-05-11T03:11:44.952Z,16.56
2023-05-11T03:14:13.660Z,16.51
2023-05-11T03:16:42.773Z,16.47
2023-05-11T03:19:11.316Z,16.47
2023-05-11T03:21:41.099Z,16.44
2023-05-11T03:24:09.589Z,16.40
2023-05-11T03:26:37.879Z,16.31
2023-05-11T03:29:08.515Z,16.35
2023-05-11T03:31:36.441Z,16.31
2023-05-11T03:34:04.374Z,16.30
2023-05-11T03:36:34.060Z,16.29
2023-05-11T03:39:03.206Z,16.34
2023-05-11T03:41:33.419Z,16.33
2023-05-11T03:44:03.277Z,16.29
2023-05-11T03:46:35.819Z,16.24
2023-05-11T03:49:06.381Z,16.21
2023-05-11T03:51:36.352Z,16.18
2023-05-11T03:54:08.197Z,16.15
2023-05-11T03:56:37.124Z,16.13
2023-05-11T03:59:05.243Z,16.11
2023-05-11T04:01:34.188Z,16.07
2023-05-11T04:04:02.028Z,16.05
2023-05-11T04:06:29.883Z,16.00
2023-05-11T04:08:58.354Z,15.99
2023-05-11T04:11:29.956Z,15.98
2023-05-11T04:13:58.250Z,15.96
2023-05-11T04:16:26.093Z,15.95
2023-05-11T04:18:53.902Z,15.94
2023-05-11T04:21:22.422Z,15.94
2023-05-11T04:23:50.181Z,15.92
2023-05-11T04:26:17.945Z,15.95
2023-05-11T04:28:47.637Z,15.97
2023-05-11T04:31:15.203Z,16.00
2023-05-11T04:33:43.013Z,15.99
2023-05-11T04:36:11.657Z,15.96
2023-05-11T04:38:39.514Z,15.96
2023-05-11T04:41:08.342Z,15.94
2023-05-11T04:43:36.614Z,15.95
2023-05-11T04:46:05.828Z,15.94
2023-05-11T04:48:33.611Z,15.96
2023-05-11T04:51:05.565Z,15.95
2023-05-11T04:53:33.390Z,15.95
2023-05-11T04:56:01.160Z,15.96
2023-05-11T04:58:29.379Z,15.96
2023-05-11T05:00:57.176Z,15.96
2023-05-11T05:03:26.352Z,15.99
2023-05-11T05:05:54.656Z,16.02
2023-05-11T05:08:22.593Z,16.05
2023-05-11T05:10:50.493Z,16.12
2023-05-11T05:13:18.762Z,16.16
2023-05-11T05:15:46.558Z,16.20
2023-05-11T05:18:14.428Z,16.24
2023-05-11T05:20:44.165Z,16.28
2023-05-11T05:23:11.733Z,16.33
2023-05-11T05:25:39.529Z,16.31
2023-05-11T05:28:07.912Z,16.31
2023-05-11T05:30:37.100Z,16.28
2023-05-11T05:33:05.150Z,16.25
2023-05-11T05:35:33.481Z,16.24
2023-05-11T05:38:02.625Z,16.25
2023-05-11T05:40:30.485Z,16.26
2023-05-11T05:42:58.918Z,16.27
2023-05-11T05:45:26.694Z,16.28
2023-05-11T05:47:54.562Z,16.29
2023-05-11T05:50:22.921Z,16.29
2023-05-11T05:52:50.717Z,16.36
2023-05-11T05:55:20.096Z,16.40
2023-05-11T05:57:48.122Z,16.42
2023-05-11T06:00:17.451Z,16.43
2023-05-11T06:02:45.537Z,16.45
2023-05-11T06:05:13.838Z,16.49
2023-05-11T06:07:41.637Z,16.53
2023-05-11T06:10:09.413Z,16.54
2023-05-11T06:12:39.174Z,16.57
2023-05-11T06:15:08.081Z,16.60
2023-05-11T06:17:35.866Z,16.66
2023-05-11T06:20:03.964Z,16.70
2023-05-11T06:22:31.712Z,16.74
2023-05-11T06:24:59.452Z,16.80
2023-05-11T06:27:27.242Z,16.87
2023-05-11T06:29:57.567Z,16.91
2023-05-11T06:32:25.463Z,16.95
2023-05-11T06:34:55.586Z,16.97
2023-05-11T06:37:23.381Z,16.99
2023-05-11T06:39:51.134Z,17.04
2023-05-11T06:42:19.447Z,17.07
2023-05-11T06:44:47.242Z,17.11
2023-05-11T06:47:16.406Z,17.15
2023-05-11T06:49:44.952Z,17.18
2023-05-11T06:52:12.765Z,17.22
2023-05-11T06:54:40.521Z,17.27
2023-05-11T06:57:08.650Z,17.30
2023-05-11T06:59:36.444Z,17.33
2023-05-11T07:02:04.224Z,17.33
2023-05-11T07:04:34.059Z,17.35
2023-05-11T07:07:01.917Z,17.33
2023-05-11T07:09:29.746Z,17.36
2023-05-11T07:11:58.330Z,17.32
2023-05-11T07:14:26.134Z,17.38
2023-05-11T07:16:53.936Z,17.39
2023-05-11T07:19:22.175Z,17.41
2023-05-11T07:21:52.257Z,17.44
2023-05-11T07:24:20.050Z,17.47
2023-05-11T07:26:49.122Z,17.47
2023-05-11T07:29:16.897Z,17.50
2023-05-11T07:31:44.744Z,17.54
2023-05-11T07:34:13.200Z,17.58
2023-05-11T07:36:40.992Z,17.61
2023-05-11T07:39:10.749Z,17.66
2023-05-11T07:41:38.910Z,17.69
2023-05-11T07:44:07.005Z,17.72
2023-05-11T07:46:34.831Z,17.73
2023-05-11T07:49:14.381Z,17.75
2023-05-11T07:51:45.239Z,17.77
2023-05-11T07:54:14.827Z,17.82
2023-05-11T07:56:42.965Z,17.88
2023-05-11T07:59:10.882Z,17.96
2023-05-11T08:01:39.073Z,18.00
2023-05-11T08:04:07.045Z,18.02
2023-05-11T08:06:34.880Z,18.07
2023-05-11T08:09:03.566Z,18.14
2023-05-11T08:11:32.912Z,18.19
2023-05-11T08:14:00.903Z,18.26
2023-05-11T08:16:29.177Z,18.32
2023-05-11T08:18:57.167Z,18.36
2023-05-11T08:21:25.209Z,18.41
2023-05-11T08:23:53.346Z,18.47
2023-05-11T08:26:21.479Z,18.51
2023-05-11T08:28:52.106Z,18.54
2023-05-11T08:31:20.449Z,18.55
2023-05-11T08:33:48.344Z,18.57
2023-05-11T08:36:16.315Z,18.53
2023-05-11T08:38:45.164Z,18.53
2023-05-11T08:41:13.547Z,18.56
2023-05-11T08:43:42.174Z,18.63
2023-05-11T08:46:12.935Z,18.74
2023-05-11T08:48:42.490Z,18.84
2023-05-11T08:51:10.420Z,18.96
2023-05-11T08:53:39.152Z,19.03
2023-05-11T08:56:09.519Z,19.00
2023-05-11T08:58:37.910Z,19.09
2023-05-11T09:01:07.711Z,19.10
2023-05-11T09:03:38.389Z,19.14
2023-05-11T09:06:08.771Z,19.10
2023-05-11T09:08:38.369Z,19.13
2023-05-11T09:11:09.072Z,19.10
2023-05-11T09:13:37.532Z,19.21
2023-05-11T09:16:11.307Z,19.19
2023-05-11T09:18:49.494Z,19.20
2023-05-11T09:21:17.645Z,19.18
2023-05-11T09:23:45.690Z,19.18
2023-05-11T09:26:17.292Z,19.21
2023-05-11T09:29:02.514Z,19.23
2023-05-11T09:31:39.961Z,19.28
2023-05-11T09:34:17.056Z,19.32
2023-05-11T09:36:46.451Z,19.34
2023-05-11T09:39:16.814Z,19.40
2023-05-11T09:41:45.396Z,19.47
2023-05-11T09:44:14.707Z,19.51
2023-05-11T09:46:43.434Z,19.56
2023-05-11T09:49:12.139Z,19.57
2023-05-11T09:51:42.253Z,19.59
2023-05-11T09:54:20.118Z,19.62
2023-05-11T09:56:50.480Z,19.63
2023-05-11T09:59:19.235Z,19.63
2023-05-11T10:01:47.124Z,19.65
2023-05-11T10:06:52.991Z,19.71
2023-05-11T10:09:26.060Z,19.76
2023-05-11T10:11:55.957Z,19.80
2023-05-11T10:14:24.691Z,19.85
2023-05-11T10:16:53.972Z,19.92
2023-05-11T10:19:22.324Z,19.97
2023-05-11T10:21:53.078Z,20.00
2023-05-11T10:24:21.391Z,20.03
2023-05-11T10:26:49.711Z,19.98
2023-05-11T10:29:20.576Z,20.05
2023-05-11T10:31:51.300Z,20.04
2023-05-11T10:34:19.960Z,20.05
2023-05-11T10:36:48.984Z,20.13
2023-05-11T10:39:18.850Z,20.24
2023-05-11T10:42:00.235Z,20.34
2023-05-11T10:44:52.355Z,20.47
2023-05-11T10:47:50.742Z,20.62
2023-05-11T10:50:35.048Z,20.76
2023-05-11T10:53:19.205Z,20.89
2023-05-11T10:56:06.487Z,21.02
2023-05-11T10:58:50.748Z,21.17
2023-05-11T11:01:38.224Z,21.29
2023-05-11T11:04:07.463Z,21.37
2023-05-11T11:06:36.656Z,21.48
2023-05-11T11:09:06.776Z,21.57
2023-05-11T11:11:39.103Z,21.67
2023-05-11T11:14:09.741Z,21.77
2023-05-11T11:16:38.899Z,21.86
2023-05-11T11:19:37.174Z,21.94
2023-05-11T11:22:05.314Z,21.91
2023-05-11T11:24:47.283Z,21.93
2023-05-11T11:27:16.706Z,21.93
2023-05-11T11:30:18.353Z,21.86
2023-05-11T11:32:47.270Z,21.83
2023-05-11T11:35:47.256Z,21.81
2023-05-11T11:38:16.843Z,21.67
2023-05-11T11:43:19.995Z,21.57
2023-05-11T11:45:55.291Z,21.50
2023-05-11T11:48:29.974Z,21.44
2023-05-11T11:51:05.991Z,21.43
2023-05-11T11:54:07.713Z,21.41
2023-05-11T11:56:43.627Z,21.43
2023-05-11T11:59:16.850Z,21.46
2023-05-11T12:01:46.319Z,21.44
2023-05-11T12:04:25.893Z,21.46
2023-05-11T12:06:57.323Z,21.49
2023-05-11T12:09:25.413Z,21.48
2023-05-11T12:11:55.043Z,21.49
2023-05-11T12:14:24.860Z,21.53
2023-05-11T12:17:03.749Z,21.59
2023-05-11T12:19:31.964Z,21.65
2023-05-11T12:21:59.862Z,21.73
2023-05-11T12:24:28.028Z,21.81
2023-05-11T12:26:59.304Z,21.90
2023-05-11T12:29:29.166Z,21.97
2023-05-11T12:31:57.057Z,22.03
2023-05-11T12:34:24.875Z,22.08
2023-05-11T12:36:57.135Z,22.11
2023-05-11T12:39:28.703Z,22.12
2023-05-11T12:41:57.647Z,22.10
2023-05-11T12:44:28.247Z,22.08
2023-05-11T12:46:56.215Z,22.07
2023-05-11T12:49:27.288Z,22.04
2023-05-11T12:52:02.916Z,22.04
2023-05-11T12:54:33.692Z,22.00
2023-05-11T12:57:03.262Z,21.97
2023-05-11T12:59:33.728Z,21.99
2023-05-11T13:02:12.751Z,22.00
2023-05-11T13:04:42.698Z,21.98
2023-05-11T13:07:11.179Z,21.95
2023-05-11T13:09:39.606Z,21.95
2023-05-11T13:12:18.355Z,21.96
2023-05-11T13:14:49.221Z,21.90
2023-05-11T13:17:31.363Z,21.97
2023-05-11T13:20:16.686Z,21.96
2023-05-11T13:22:45.056Z,21.95
2023-05-11T13:25:12.892Z,21.91
2023-05-11T13:27:40.676Z,21.87
2023-05-11T13:30:11.579Z,21.78
2023-05-11T13:32:39.686Z,21.73
2023-05-11T13:35:08.253Z,21.64
2023-05-11T13:37:36.528Z,21.55
2023-05-11T13:40:04.889Z,21.48
2023-05-11T13:42:33.194Z,21.41
2023-05-11T13:45:01.208Z,21.30
2023-05-11T13:47:31.155Z,21.29
2023-05-11T13:49:59.029Z,21.26
2023-05-11T13:52:27.102Z,21.16
2023-05-11T13:54:54.918Z,21.14
2023-05-11T13:57:22.823Z,21.12
2023-05-11T13:59:51.633Z,21.07
2023-05-11T14:02:19.558Z,21.04
2023-05-11T14:04:48.817Z,21.03
2023-05-11T14:07:17.137Z,21.00
2023-05-11T14:09:47.642Z,20.94
2023-05-11T14:12:15.516Z,20.91
2023-05-11T14:14:43.481Z,20.90
2023-05-11T14:17:11.857Z,20.85
2023-05-11T14:19:39.805Z,20.81
2023-05-11T14:22:09.072Z,20.78
2023-05-11T14:24:36.990Z,20.73
2023-05-11T14:27:05.123Z,20.68
2023-05-11T14:29:33.463Z,20.62
2023-05-11T14:32:01.259Z,20.55
2023-05-11T14:34:29.022Z,20.51
2023-05-11T14:36:57.916Z,20.45
2023-05-11T14:39:27.038Z,20.39
2023-05-11T14:41:55.028Z,20.35
2023-05-11T14:44:24.708Z,20.32
2023-05-11T14:46:52.649Z,20.30
2023-05-11T14:49:20.529Z,20.28
2023-05-11T14:51:48.534Z,20.23
2023-05-11T14:54:16.350Z,20.17
2023-05-11T14:56:51.414Z,20.20
2023-05-11T14:59:19.284Z,20.17
2023-05-11T15:01:47.177Z,20.10
2023-05-11T15:04:16.838Z,20.07
2023-05-11T15:06:44.838Z,20.07
2023-05-11T15:09:12.634Z,20.08
2023-05-11T15:11:41.075Z,20.01
2023-05-11T15:14:10.688Z,19.99
2023-05-11T15:16:38.671Z,19.99
2023-05-11T15:19:07.885Z,19.93
2023-05-11T15:21:36.159Z,19.92
2023-05-11T15:24:04.440Z,19.91
2023-05-11T15:26:32.847Z,19.89
2023-05-11T15:29:00.635Z,19.90
2023-05-11T15:31:29.944Z,19.93
2023-05-11T15:33:58.114Z,19.96
2023-05-11T15:36:29.668Z,19.99
2023-05-11T15:38:58.766Z,20.01
2023-05-11T15:41:27.349Z,20.05
2023-05-11T15:43:55.488Z,20.07
2023-05-11T15:46:23.953Z,20.08
2023-05-11T15:48:53.175Z,20.04
2023-05-11T15:51:21.074Z,20.13
2023-05-11T15:53:48.887Z,20.14
2023-05-11T15:56:16.946Z,20.14
2023-05-11T15:58:44.882Z,20.17
2023-05-11T16:01:13.595Z,20.16
2023-05-11T16:03:41.453Z,20.17
2023-05-11T16:06:10.755Z,20.20
2023-05-11T16:08:39.069Z,20.21
2023-05-11T16:11:06.842Z,20.22
2023-05-11T16:13:34.635Z,20.24
2023-05-11T16:16:03.011Z,20.25
2023-05-11T16:18:30.857Z,20.25
2023-05-11T16:20:58.689Z,20.26
2023-05-11T16:23:28.809Z,20.26
2023-05-11T16:25:57.233Z,20.26
2023-05-11T16:28:25.035Z,20.24
2023-05-11T16:30:53.412Z,20.21
2023-05-11T16:33:21.173Z,20.15
2023-05-11T16:35:49.297Z,20.14
2023-05-11T16:38:18.527Z,20.12
2023-05-11T16:40:48.015Z,20.10
2023-05-11T16:43:16.693Z,20.08
2023-05-11T16:45:46.336Z,20.08
2023-05-11T16:48:13.906Z,20.13
2023-05-11T16:50:42.382Z,20.11
2023-05-11T16:53:10.816Z,20.10
2023-05-11T16:55:38.639Z,20.07
2023-05-11T16:58:07.845Z,20.06
2023-05-11T17:00:35.886Z,20.06
2023-05-11T17:03:03.942Z,20.06
2023-05-11T17:05:31.851Z,20.04
2023-05-11T17:08:00.025Z,20.04
2023-05-11T17:10:28.028Z,20.01
2023-05-11T17:12:56.806Z,19.99
2023-05-11T17:15:27.292Z,19.97
2023-05-11T17:17:55.287Z,19.97
2023-05-11T17:20:23.063Z,19.88
2023-05-11T17:22:51.338Z,19.80
2023-05-11T17:25:19.195Z,19.74
2023-05-11T17:27:47.477Z,19.71
2023-05-11T17:30:15.704Z,19.66
2023-05-11T17:32:45.452Z,19.64
2023-05-11T17:35:13.622Z,19.61
2023-05-11T17:37:41.779Z,19.60
2023-05-11T17:40:10.682Z,19.59
2023-05-11T17:42:38.726Z,19.58
2023-05-11T17:45:08.127Z,19.55
2023-05-11T17:47:35.935Z,19.55
2023-05-11T17:50:05.711Z,19.55
2023-05-11T17:52:33.846Z,19.54
2023-05-11T17:55:02.725Z,19.53
2023-05-11T17:57:30.535Z,19.53
2023-05-11T17:59:58.754Z,19.52
2023-05-11T18:02:26.626Z,19.52
2023-05-11T18:04:55.398Z,19.51
2023-05-11T18:07:24.546Z,19.51
2023-05-11T18:09:52.590Z,19.50
2023-05-11T18:12:20.684Z,19.50
2023-05-11T18:14:48.410Z,19.47
2023-05-11T18:17:16.588Z,19.46
2023-05-11T18:19:44.329Z,19.45
2023-05-11T18:22:12.835Z,19.42
2023-05-11T18:24:41.973Z,19.41
2023-05-11T18:27:10.077Z,19.38
2023-05-11T18:29:38.186Z,19.29
2023-05-11T18:32:06.444Z,19.25
2023-05-11T18:34:34.950Z,19.22
2023-05-11T18:37:03.276Z,19.21
2023-05-11T18:39:31.029Z,19.17
2023-05-11T18:42:02.992Z,19.15
2023-05-11T18:44:32.021Z,19.13
2023-05-11T18:47:00.279Z,19.13
2023-05-11T18:49:28.623Z,19.14
2023-05-11T18:51:56.938Z,19.12
2023-05-11T18:54:24.858Z,19.03
2023-05-11T18:56:53.243Z,19.04
2023-05-11T18:59:22.577Z,19.00
2023-05-11T19:01:50.404Z,18.97
2023-05-11T19:04:20.880Z,18.92
2023-05-11T19:06:49.202Z,18.87
2023-05-11T19:09:17.576Z,18.83
2023-05-11T19:11:45.628Z,18.77
2023-05-11T19:14:14.592Z,18.72
2023-05-11T19:16:44.462Z,18.68
2023-05-11T19:19:12.845Z,18.62
2023-05-11T19:21:42.400Z,18.59
2023-05-11T19:24:11.168Z,18.55
2023-05-11T19:26:39.261Z,18.48
2023-05-11T19:29:09.170Z,18.45
2023-05-11T19:31:37.142Z,18.38
2023-05-11T19:34:06.807Z,18.35
2023-05-11T19:36:34.416Z,18.35
2023-05-11T19:39:02.693Z,18.35
2023-05-11T19:41:30.472Z,18.31
2023-05-11T19:43:58.567Z,18.27
2023-05-11T19:46:27.050Z,18.28
2023-05-11T19:48:54.917Z,18.29
2023-05-11T19:51:24.129Z,18.33
2023-05-11T19:53:54.236Z,18.33
2023-05-11T19:56:22.152Z,18.35
2023-05-11T19:58:50.358Z,18.36
2023-05-11T20:01:18.785Z,18.38
2023-05-11T20:03:46.676Z,18.38
2023-05-11T20:06:14.559Z,18.38
2023-05-11T20:08:46.396Z,18.41
2023-05-11T20:11:15.712Z,18.41
2023-05-11T20:13:44.002Z,18.42
2023-05-11T20:16:12.520Z,18.42
2023-05-11T20:18:40.605Z,18.42
2023-05-11T20:21:08.474Z,18.43
2023-05-11T20:23:37.739Z,18.45
2023-05-11T20:26:06.979Z,18.49
2023-05-11T20:28:34.780Z,18.51
2023-05-11T20:31:02.879Z,18.51
2023-05-11T20:36:01.353Z,18.53
2023-05-11T20:38:29.540Z,18.54
2023-05-11T20:40:58.595Z,18.55
2023-05-11T20:43:27.921Z,18.58
2023-05-11T20:45:56.048Z,18.58
2023-05-11T20:48:36.159Z,18.58
2023-05-11T20:51:07.922Z,18.59
2023-05-11T20:53:35.732Z,18.60
2023-05-11T20:56:03.803Z,18.59
2023-05-11T20:58:33.164Z,18.61
2023-05-11T21:01:01.060Z,18.60
2023-05-11T21:03:28.876Z,18.61
2023-05-11T21:05:57.399Z,18.56
2023-05-11T21:08:25.198Z,18.59
2023-05-11T21:10:53.138Z,18.61
2023-05-11T21:13:21.248Z,18.61
2023-05-11T21:15:50.665Z,18.61
2023-05-11T21:18:18.749Z,18.57
2023-05-11T21:20:46.833Z,18.57
2023-05-11T21:23:15.244Z,18.55
2023-05-11T21:25:43.145Z,18.55
2023-05-11T21:28:11.515Z,18.54
2023-05-11T21:30:39.299Z,18.53
2023-05-11T21:33:08.594Z,18.52
2023-05-11T21:35:36.861Z,18.52
2023-05-11T21:38:04.745Z,18.52
2023-05-11T21:40:32.528Z,18.52
2023-05-11T21:43:00.858Z,18.53
2023-05-11T21:45:28.620Z,18.52
2023-05-11T21:47:58.559Z,18.52
2023-05-11T21:50:28.798Z,18.48
2023-05-11T21:52:56.691Z,18.47
2023-05-11T21:55:24.762Z,18.45
2023-05-11T21:57:52.997Z,18.42
2023-05-11T22:00:22.628Z,18.43
2023-05-11T22:02:51.154Z,18.39
2023-05-11T22:05:19.686Z,18.38
2023-05-11T22:07:48.881Z,18.37
2023-05-11T22:10:17.332Z,18.34
2023-05-11T22:12:45.764Z,18.32
2023-05-11T22:15:13.668Z,18.32
2023-05-11T22:17:41.518Z,18.31
2023-05-11T22:20:11.469Z,18.31
2023-05-11T22:22:39.670Z,18.30
2023-05-11T22:25:09.872Z,18.32
2023-05-11T22:27:38.210Z,18.31
2023-05-11T22:30:07.474Z,18.30
2023-05-11T22:32:36.120Z,18.32
2023-05-11T22:35:04.578Z,18.32
2023-05-11T22:37:32.690Z,18.33
2023-05-11T22:40:00.471Z,18.33
2023-05-11T22:42:31.253Z,18.34
2023-05-11T22:44:58.998Z,18.32
2023-05-11T22:47:27.769Z,18.32
2023-05-11T22:49:55.758Z,18.31
2023-05-11T22:52:23.566Z,18.30
2023-05-11T22:54:54.586Z,18.33
2023-05-11T22:57:24.617Z,18.31
2023-05-11T22:59:53.856Z,18.30
2023-05-11T23:02:22.944Z,18.29
2023-05-11T23:04:51.875Z,18.29
2023-05-11T23:07:20.229Z,18.26
2023-05-11T23:09:49.748Z,18.26
2023-05-11T23:12:18.295Z,18.28
2023-05-11T23:14:46.103Z,18.26
2023-05-11T23:17:15.649Z,18.26
2023-05-11T23:19:44.210Z,18.23
2023-05-11T23:22:12.109Z,18.21
2023-05-11T23:24:39.870Z,18.17
2023-05-11T23:27:08.288Z,18.15
2023-05-11T23:29:36.347Z,18.16
2023-05-11T23:32:04.517Z,18.15
2023-05-11T23:34:34.173Z,18.11
2023-05-11T23:37:01.720Z,18.18
2023-05-11T23:39:29.727Z,18.17
2023-05-11T23:41:58.001Z,18.16
2023-05-11T23:44:25.797Z,18.14
2023-05-11T23:46:53.595Z,18.12
2023-05-11T23:49:21.978Z,18.11
2023-05-11T23:51:51.121Z,18.09
2023-05-11T23:54:18.997Z,18.07
2023-05-11T23:56:47.312Z,18.07
2023-05-11T23:59:15.183Z,18.05
